sensor_id;sensor_type;location;lat;lon;timestamp;pressure;altitude;pressure_sealevel;temperature;humidity
10115;BME280;5097;43.260;27.812;2023-07-08T00:01:07;99834.16;;;21.21;91.68
10115;BME280;5097;43.260;27.812;2023-07-08T00:03:52;99844.00;;;21.38;91.08
10115;BME280;5097;43.260;27.812;2023-07-08T00:06:37;99820.72;;;21.21;91.05
10115;BME280;5097;43.260;27.812;2023-07-08T00:09:21;99823.66;;;21.36;89.76
10115;BME280;5097;43.260;27.812;2023-07-08T00:12:10;99821.13;;;21.34;90.30
10115;BME280;5097;43.260;27.812;2023-07-08T00:14:54;99843.56;;;21.25;91.20
10115;BME280;5097;43.260;27.812;2023-07-08T00:17:40;99836.41;;;21.07;91.72
10115;BME280;5097;43.260;27.812;2023-07-08T00:20:32;99835.88;;;21.30;90.82
10115;BME280;5097;43.260;27.812;2023-07-08T00:23:16;99838.22;;;21.07;91.74
10115;BME280;5097;43.260;27.812;2023-07-08T00:26:10;99833.38;;;21.29;90.83
10115;BME280;5097;43.260;27.812;2023-07-08T00:28:55;99855.31;;;21.24;91.15
10115;BME280;5097;43.260;27.812;2023-07-08T00:31:39;99816.75;;;20.81;93.03
10115;BME280;5097;43.260;27.812;2023-07-08T00:34:25;99854.16;;;20.82;95.16
10115;BME280;5097;43.260;27.812;2023-07-08T00:37:10;99819.03;;;20.75;94.35
10115;BME280;5097;43.260;27.812;2023-07-08T00:39:55;99846.00;;;21.10;93.18
10115;BME280;5097;43.260;27.812;2023-07-08T00:42:39;99692.06;;;19.95;94.69
10115;BME280;5097;43.260;27.812;2023-07-08T00:45:39;99840.69;;;20.64;95.23
10115;BME280;5097;43.260;27.812;2023-07-08T00:48:39;99858.69;;;20.82;94.84
10115;BME280;5097;43.260;27.812;2023-07-08T00:51:25;99829.75;;;20.57;95.08
10115;BME280;5097;43.260;27.812;2023-07-08T00:54:11;99832.13;;;20.60;95.36
10115;BME280;5097;43.260;27.812;2023-07-08T00:56:57;99808.59;;;20.54;94.64
10115;BME280;5097;43.260;27.812;2023-07-08T00:59:46;99827.84;;;20.50;94.01
10115;BME280;5097;43.260;27.812;2023-07-08T01:02:34;99825.09;;;20.41;94.81
10115;BME280;5097;43.260;27.812;2023-07-08T01:05:22;99822.47;;;20.50;94.10
10115;BME280;5097;43.260;27.812;2023-07-08T01:08:09;99845.78;;;20.67;93.73
10115;BME280;5097;43.260;27.812;2023-07-08T01:10:55;99845.41;;;20.80;92.11
10115;BME280;5097;43.260;27.812;2023-07-08T01:13:44;99853.78;;;20.77;92.89
10115;BME280;5097;43.260;27.812;2023-07-08T01:16:28;99831.06;;;20.35;94.72
10115;BME280;5097;43.260;27.812;2023-07-08T01:19:19;99838.88;;;20.29;95.89
10115;BME280;5097;43.260;27.812;2023-07-08T01:22:16;99817.56;;;20.27;95.21
10115;BME280;5097;43.260;27.812;2023-07-08T01:25:02;99822.31;;;20.33;94.42
10115;BME280;5097;43.260;27.812;2023-07-08T01:27:49;99847.06;;;20.45;94.09
10115;BME280;5097;43.260;27.812;2023-07-08T01:30:36;99815.94;;;20.16;94.39
10115;BME280;5097;43.260;27.812;2023-07-08T01:33:21;99810.13;;;20.21;94.28
10115;BME280;5097;43.260;27.812;2023-07-08T01:36:08;99874.28;;;20.32;95.51
10115;BME280;5097;43.260;27.812;2023-07-08T01:38:55;99879.50;;;20.34;95.50
10115;BME280;5097;43.260;27.812;2023-07-08T01:41:39;99876.44;;;20.47;94.31
10115;BME280;5097;43.260;27.812;2023-07-08T01:44:28;99882.69;;;20.37;94.69
10115;BME280;5097;43.260;27.812;2023-07-08T01:47:15;99882.69;;;20.37;94.65
10115;BME280;5097;43.260;27.812;2023-07-08T01:50:00;99837.44;;;20.06;95.02
10115;BME280;5097;43.260;27.812;2023-07-08T01:52:45;99825.56;;;20.09;95.28
10115;BME280;5097;43.260;27.812;2023-07-08T01:55:31;99831.19;;;20.16;94.87
10115;BME280;5097;43.260;27.812;2023-07-08T01:58:15;99823.44;;;20.31;93.25
10115;BME280;5097;43.260;27.812;2023-07-08T02:01:00;99874.59;;;20.65;92.37
10115;BME280;5097;43.260;27.812;2023-07-08T02:03:44;99879.50;;;20.52;92.32
10115;BME280;5097;43.260;27.812;2023-07-08T02:06:29;99852.22;;;20.38;91.49
10115;BME280;5097;43.260;27.812;2023-07-08T02:09:22;99880.19;;;20.82;89.41
10115;BME280;5097;43.260;27.812;2023-07-08T02:12:09;99849.41;;;20.76;88.58
10115;BME280;5097;43.260;27.812;2023-07-08T02:14:53;99865.41;;;20.68;89.07
10115;BME280;5097;43.260;27.812;2023-07-08T02:17:38;99883.63;;;20.74;88.39
10115;BME280;5097;43.260;27.812;2023-07-08T02:20:22;99841.78;;;20.53;87.68
10115;BME280;5097;43.260;27.812;2023-07-08T02:23:07;99832.44;;;20.21;88.88
10115;BME280;5097;43.260;27.812;2023-07-08T02:25:51;99870.38;;;20.63;88.17
10115;BME280;5097;43.260;27.812;2023-07-08T02:28:37;99868.75;;;20.80;87.42
10115;BME280;5097;43.260;27.812;2023-07-08T02:31:21;99862.06;;;20.66;88.40
10115;BME280;5097;43.260;27.812;2023-07-08T02:34:07;99868.94;;;20.68;87.66
10115;BME280;5097;43.260;27.812;2023-07-08T02:36:51;99838.50;;;20.41;87.92
10115;BME280;5097;43.260;27.812;2023-07-08T02:39:35;99860.78;;;20.60;88.09
10115;BME280;5097;43.260;27.812;2023-07-08T02:42:20;99863.88;;;20.65;87.52
10115;BME280;5097;43.260;27.812;2023-07-08T02:45:07;99859.91;;;20.69;87.35
10115;BME280;5097;43.260;27.812;2023-07-08T02:47:51;99873.78;;;20.65;87.86
10115;BME280;5097;43.260;27.812;2023-07-08T02:50:35;99834.72;;;20.34;87.77
10115;BME280;5097;43.260;27.812;2023-07-08T02:53:20;99866.78;;;20.54;88.03
10115;BME280;5097;43.260;27.812;2023-07-08T02:56:04;99828.97;;;20.29;87.94
10115;BME280;5097;43.260;27.812;2023-07-08T02:58:48;99840.69;;;20.64;86.60
10115;BME280;5097;43.260;27.812;2023-07-08T03:01:34;99843.16;;;20.39;87.45
10115;BME280;5097;43.260;27.812;2023-07-08T03:04:24;99816.09;;;20.33;86.88
10115;BME280;5097;43.260;27.812;2023-07-08T03:07:10;99820.66;;;20.32;86.92
10115;BME280;5097;43.260;27.812;2023-07-08T03:09:54;99830.81;;;20.47;86.77
10115;BME280;5097;43.260;27.812;2023-07-08T03:12:38;99832.91;;;20.53;86.20
10115;BME280;5097;43.260;27.812;2023-07-08T03:15:22;99865.41;;;20.50;86.66
10115;BME280;5097;43.260;27.812;2023-07-08T03:18:08;99826.25;;;20.39;86.46
10115;BME280;5097;43.260;27.812;2023-07-08T03:20:54;99883.97;;;20.61;86.01
10115;BME280;5097;43.260;27.812;2023-07-08T03:23:41;99852.84;;;20.68;85.48
10115;BME280;5097;43.260;27.812;2023-07-08T03:26:26;99822.03;;;20.36;85.85
10115;BME280;5097;43.260;27.812;2023-07-08T03:29:17;99846.06;;;20.64;85.18
10115;BME280;5097;43.260;27.812;2023-07-08T03:32:03;99803.91;;;20.38;85.16
10115;BME280;5097;43.260;27.812;2023-07-08T03:34:49;99836.53;;;20.62;84.89
10115;BME280;5097;43.260;27.812;2023-07-08T03:37:35;99853.91;;;20.57;85.21
10115;BME280;5097;43.260;27.812;2023-07-08T03:40:20;99844.38;;;20.27;85.66
10115;BME280;5097;43.260;27.812;2023-07-08T03:43:04;99822.53;;;20.40;85.15
10115;BME280;5097;43.260;27.812;2023-07-08T03:45:48;99838.81;;;20.56;85.15
10115;BME280;5097;43.260;27.812;2023-07-08T03:48:32;99856.13;;;20.62;84.75
10115;BME280;5097;43.260;27.812;2023-07-08T03:51:21;99824.16;;;20.51;84.49
10115;BME280;5097;43.260;27.812;2023-07-08T03:54:11;99854.84;;;20.66;84.88
10115;BME280;5097;43.260;27.812;2023-07-08T03:56:56;99849.63;;;20.65;84.58
10115;BME280;5097;43.260;27.812;2023-07-08T03:59:42;99849.69;;;20.91;83.55
10115;BME280;5097;43.260;27.812;2023-07-08T04:02:26;99859.97;;;20.96;83.19
10115;BME280;5097;43.260;27.812;2023-07-08T04:05:13;99849.03;;;20.89;82.90
10115;BME280;5097;43.260;27.812;2023-07-08T04:07:58;99858.75;;;20.90;83.64
10115;BME280;5097;43.260;27.812;2023-07-08T04:10:43;99829.19;;;20.82;82.67
10115;BME280;5097;43.260;27.812;2023-07-08T04:13:27;99833.97;;;20.96;82.15
10115;BME280;5097;43.260;27.812;2023-07-08T04:16:15;99829.19;;;20.82;82.41
10115;BME280;5097;43.260;27.812;2023-07-08T04:19:02;99810.78;;;20.69;82.13
10115;BME280;5097;43.260;27.812;2023-07-08T04:21:46;99832.69;;;20.82;82.07
10115;BME280;5097;43.260;27.812;2023-07-08T04:24:32;99884.53;;;21.27;80.97
10115;BME280;5097;43.260;27.812;2023-07-08T04:27:17;99832.81;;;20.99;81.17
10115;BME280;5097;43.260;27.812;2023-07-08T04:30:01;99880.91;;;21.10;81.06
10115;BME280;5097;43.260;27.812;2023-07-08T04:32:47;99872.75;;;21.20;80.81
10115;BME280;5097;43.260;27.812;2023-07-08T04:35:31;99841.84;;;20.98;80.98
10115;BME280;5097;43.260;27.812;2023-07-08T04:38:17;99869.69;;;21.15;80.46
10115;BME280;5097;43.260;27.812;2023-07-08T04:41:05;99869.31;;;21.09;80.72
10115;BME280;5097;43.260;27.812;2023-07-08T04:43:50;99851.00;;;20.87;79.96
10115;BME280;5097;43.260;27.812;2023-07-08T04:46:38;99871.09;;;21.71;78.23
10115;BME280;5097;43.260;27.812;2023-07-08T04:49:23;99875.97;;;21.76;76.91
10115;BME280;5097;43.260;27.812;2023-07-08T04:52:14;99864.44;;;21.31;78.09
10115;BME280;5097;43.260;27.812;2023-07-08T04:54:58;99812.09;;;20.91;78.86
10115;BME280;5097;43.260;27.812;2023-07-08T04:57:46;99882.22;;;21.32;78.29
10115;BME280;5097;43.260;27.812;2023-07-08T05:00:31;99877.41;;;21.36;77.65
10115;BME280;5097;43.260;27.812;2023-07-08T05:03:15;99846.59;;;21.22;77.16
10115;BME280;5097;43.260;27.812;2023-07-08T05:05:59;99845.56;;;21.23;76.90
10115;BME280;5097;43.260;27.812;2023-07-08T05:08:44;99869.59;;;21.51;75.67
10115;BME280;5097;43.260;27.812;2023-07-08T05:11:28;99883.50;;;21.72;75.05
10115;BME280;5097;43.260;27.812;2023-07-08T05:14:13;99867.59;;;21.53;74.93
10115;BME280;5097;43.260;27.812;2023-07-08T05:16:58;99896.91;;;21.64;74.92
10115;BME280;5097;43.260;27.812;2023-07-08T05:19:42;99894.94;;;21.66;74.45
10115;BME280;5097;43.260;27.812;2023-07-08T05:22:28;99895.09;;;21.65;74.22
10115;BME280;5097;43.260;27.812;2023-07-08T05:25:13;99890.66;;;21.55;73.46
10115;BME280;5097;43.260;27.812;2023-07-08T05:27:57;99852.34;;;21.53;73.81
10115;BME280;5097;43.260;27.812;2023-07-08T05:30:44;99864.44;;;21.84;72.80
10115;BME280;5097;43.260;27.812;2023-07-08T05:33:30;99907.03;;;21.70;73.16
10115;BME280;5097;43.260;27.812;2023-07-08T05:36:14;99905.84;;;21.99;72.25
10115;BME280;5097;43.260;27.812;2023-07-08T05:38:58;99864.78;;;21.54;72.88
10115;BME280;5097;43.260;27.812;2023-07-08T05:41:43;99876.75;;;21.95;72.16
10115;BME280;5097;43.260;27.812;2023-07-08T05:44:27;99856.22;;;21.59;72.83
10115;BME280;5097;43.260;27.812;2023-07-08T05:47:13;99855.00;;;21.27;74.40
10115;BME280;5097;43.260;27.812;2023-07-08T05:49:57;99872.47;;;21.75;72.45
10115;BME280;5097;43.260;27.812;2023-07-08T05:52:42;99861.63;;;21.67;72.05
10115;BME280;5097;43.260;27.812;2023-07-08T05:55:26;99891.34;;;21.92;71.22
10115;BME280;5097;43.260;27.812;2023-07-08T05:58:10;99882.66;;;21.64;72.13
10115;BME280;5097;43.260;27.812;2023-07-08T06:01:08;99830.72;;;21.37;71.17
10115;BME280;5097;43.260;27.812;2023-07-08T06:03:54;99901.22;;;21.83;70.59
10115;BME280;5097;43.260;27.812;2023-07-08T06:06:41;99891.38;;;22.00;70.11
10115;BME280;5097;43.260;27.812;2023-07-08T06:09:25;99896.72;;;21.92;70.21
10115;BME280;5097;43.260;27.812;2023-07-08T06:12:10;99870.38;;;21.96;70.09
10115;BME280;5097;43.260;27.812;2023-07-08T06:14:54;99877.47;;;22.05;69.42
10115;BME280;5097;43.260;27.812;2023-07-08T06:17:38;99893.16;;;22.26;68.55
10115;BME280;5097;43.260;27.812;2023-07-08T06:20:24;99862.28;;;22.38;68.66
10115;BME280;5097;43.260;27.812;2023-07-08T06:23:08;99881.53;;;22.17;68.96
10115;BME280;5097;43.260;27.812;2023-07-08T06:25:52;99877.31;;;22.15;69.31
10115;BME280;5097;43.260;27.812;2023-07-08T06:28:37;99825.16;;;21.99;68.46
10115;BME280;5097;43.260;27.812;2023-07-08T06:31:21;99853.31;;;21.79;69.13
10115;BME280;5097;43.260;27.812;2023-07-08T06:34:05;99878.31;;;22.05;68.99
10115;BME280;5097;43.260;27.812;2023-07-08T06:36:51;99889.69;;;21.99;69.09
10115;BME280;5097;43.260;27.812;2023-07-08T06:39:35;99827.47;;;21.94;68.76
10115;BME280;5097;43.260;27.812;2023-07-08T06:42:22;99854.00;;;22.32;68.12
10115;BME280;5097;43.260;27.812;2023-07-08T06:45:19;99882.78;;;22.39;69.41
10115;BME280;5097;43.260;27.812;2023-07-08T06:48:03;99835.59;;;22.02;69.78
10115;BME280;5097;43.260;27.812;2023-07-08T06:50:48;99882.56;;;22.33;69.65
10115;BME280;5097;43.260;27.812;2023-07-08T06:53:34;99856.00;;;22.30;69.90
10115;BME280;5097;43.260;27.812;2023-07-08T06:56:18;99847.03;;;22.13;70.10
10115;BME280;5097;43.260;27.812;2023-07-08T06:59:03;99876.97;;;22.09;70.58
10115;BME280;5097;43.260;27.812;2023-07-08T07:01:47;99871.97;;;22.31;69.94
10115;BME280;5097;43.260;27.812;2023-07-08T07:04:31;99879.13;;;22.57;69.32
10115;BME280;5097;43.260;27.812;2023-07-08T07:07:16;99860.31;;;22.73;68.76
10115;BME280;5097;43.260;27.812;2023-07-08T07:10:02;99878.16;;;23.07;67.80
10115;BME280;5097;43.260;27.812;2023-07-08T07:12:46;99845.50;;;22.86;67.94
10115;BME280;5097;43.260;27.812;2023-07-08T07:15:31;99876.50;;;23.23;67.10
10115;BME280;5097;43.260;27.812;2023-07-08T07:18:15;99848.53;;;23.16;66.96
10115;BME280;5097;43.260;27.812;2023-07-08T07:20:59;99850.88;;;23.10;66.60
10115;BME280;5097;43.260;27.812;2023-07-08T07:23:43;99868.72;;;23.03;67.20
10115;BME280;5097;43.260;27.812;2023-07-08T07:26:29;99856.25;;;22.61;67.99
10115;BME280;5097;43.260;27.812;2023-07-08T07:29:16;99882.88;;;22.81;68.59
10115;BME280;5097;43.260;27.812;2023-07-08T07:32:01;99900.38;;;23.01;67.99
10115;BME280;5097;43.260;27.812;2023-07-08T07:34:46;99893.31;;;23.08;67.49
10115;BME280;5097;43.260;27.812;2023-07-08T07:37:30;99886.06;;;22.76;67.79
10115;BME280;5097;43.260;27.812;2023-07-08T07:40:15;99883.88;;;22.63;69.44
10115;BME280;5097;43.260;27.812;2023-07-08T07:43:02;99903.75;;;23.03;68.15
10115;BME280;5097;43.260;27.812;2023-07-08T07:45:50;99904.94;;;22.84;67.39
10115;BME280;5097;43.260;27.812;2023-07-08T07:48:35;99914.19;;;22.73;66.05
10115;BME280;5097;43.260;27.812;2023-07-08T07:51:19;99861.09;;;22.41;66.93
10115;BME280;5097;43.260;27.812;2023-07-08T07:54:03;99902.00;;;22.61;65.70
10115;BME280;5097;43.260;27.812;2023-07-08T07:56:47;99896.19;;;22.99;64.44
10115;BME280;5097;43.260;27.812;2023-07-08T07:59:33;99920.91;;;22.69;64.48
10115;BME280;5097;43.260;27.812;2023-07-08T08:02:18;99888.31;;;23.14;63.47
10115;BME280;5097;43.260;27.812;2023-07-08T08:05:03;99893.50;;;23.07;63.19
10115;BME280;5097;43.260;27.812;2023-07-08T08:07:47;99883.19;;;23.10;63.67
10115;BME280;5097;43.260;27.812;2023-07-08T08:10:31;99896.38;;;23.22;63.18
10115;BME280;5097;43.260;27.812;2023-07-08T08:13:16;99905.47;;;23.21;63.36
10115;BME280;5097;43.260;27.812;2023-07-08T08:16:02;99885.38;;;23.48;62.50
10115;BME280;5097;43.260;27.812;2023-07-08T08:18:47;99890.84;;;23.96;61.50
10115;BME280;5097;43.260;27.812;2023-07-08T08:21:31;99877.19;;;24.29;60.50
10115;BME280;5097;43.260;27.812;2023-07-08T08:24:15;99883.47;;;23.90;61.44
10115;BME280;5097;43.260;27.812;2023-07-08T08:26:59;99910.28;;;23.67;62.16
10115;BME280;5097;43.260;27.812;2023-07-08T08:29:44;99894.41;;;24.28;60.99
10115;BME280;5097;43.260;27.812;2023-07-08T08:32:29;99864.34;;;24.00;59.85
10115;BME280;5097;43.260;27.812;2023-07-08T08:35:14;99916.22;;;24.18;59.82
10115;BME280;5097;43.260;27.812;2023-07-08T08:37:58;99907.41;;;25.10;57.40
10115;BME280;5097;43.260;27.812;2023-07-08T08:40:43;99911.72;;;24.73;57.05
10115;BME280;5097;43.260;27.812;2023-07-08T08:43:35;99907.97;;;24.12;57.47
10115;BME280;5097;43.260;27.812;2023-07-08T08:46:27;99900.34;;;23.67;59.30
10115;BME280;5097;43.260;27.812;2023-07-08T08:49:21;99942.75;;;24.06;56.97
10115;BME280;5097;43.260;27.812;2023-07-08T08:52:08;99892.38;;;23.82;57.19
10115;BME280;5097;43.260;27.812;2023-07-08T08:54:52;99899.50;;;24.54;55.69
10115;BME280;5097;43.260;27.812;2023-07-08T08:57:41;99898.88;;;24.13;55.28
10115;BME280;5097;43.260;27.812;2023-07-08T09:00:34;99893.81;;;24.09;56.54
10115;BME280;5097;43.260;27.812;2023-07-08T09:03:34;99919.50;;;24.68;56.23
10115;BME280;5097;43.260;27.812;2023-07-08T09:06:27;99949.19;;;25.00;55.14
10115;BME280;5097;43.260;27.812;2023-07-08T09:09:18;99924.63;;;24.55;55.57
10115;BME280;5097;43.260;27.812;2023-07-08T09:12:05;99956.03;;;25.10;54.27
10115;BME280;5097;43.260;27.812;2023-07-08T09:14:50;99966.69;;;25.35;54.05
10115;BME280;5097;43.260;27.812;2023-07-08T09:17:35;99957.41;;;25.53;53.06
10115;BME280;5097;43.260;27.812;2023-07-08T09:20:22;99950.47;;;24.89;54.11
10115;BME280;5097;43.260;27.812;2023-07-08T09:23:17;99985.59;;;24.89;54.62
10115;BME280;5097;43.260;27.812;2023-07-08T09:26:07;99974.81;;;24.81;53.10
10115;BME280;5097;43.260;27.812;2023-07-08T09:28:54;99985.59;;;25.35;52.64
10115;BME280;5097;43.260;27.812;2023-07-08T09:31:39;99959.41;;;24.89;53.25
10115;BME280;5097;43.260;27.812;2023-07-08T09:34:37;99983.63;;;24.74;53.36
10115;BME280;5097;43.260;27.812;2023-07-08T09:37:26;99975.75;;;25.42;52.05
10115;BME280;5097;43.260;27.812;2023-07-08T09:40:17;99980.19;;;25.35;51.29
10115;BME280;5097;43.260;27.812;2023-07-08T09:43:04;99953.22;;;25.65;50.83
10115;BME280;5097;43.260;27.812;2023-07-08T09:45:58;99976.31;;;25.53;51.63
10115;BME280;5097;43.260;27.812;2023-07-08T09:48:44;99939.53;;;25.67;51.52
10115;BME280;5097;43.260;27.812;2023-07-08T09:51:28;99958.78;;;25.49;51.25
10115;BME280;5097;43.260;27.812;2023-07-08T09:54:13;99964.44;;;24.92;52.61
10115;BME280;5097;43.260;27.812;2023-07-08T09:57:02;99989.50;;;25.09;52.06
10115;BME280;5097;43.260;27.812;2023-07-08T09:59:53;99987.53;;;25.26;51.45
10115;BME280;5097;43.260;27.812;2023-07-08T10:02:41;99976.34;;;25.30;52.61
10115;BME280;5097;43.260;27.812;2023-07-08T10:05:31;99962.13;;;25.27;51.48
10115;BME280;5097;43.260;27.812;2023-07-08T10:08:19;99972.34;;;25.79;50.39
10115;BME280;5097;43.260;27.812;2023-07-08T10:11:12;99955.72;;;24.51;52.57
10115;BME280;5097;43.260;27.812;2023-07-08T10:14:17;99959.22;;;24.91;52.27
10115;BME280;5097;43.260;27.812;2023-07-08T10:17:07;99997.03;;;24.91;52.02
10115;BME280;5097;43.260;27.812;2023-07-08T10:19:56;99933.41;;;24.57;51.64
10115;BME280;5097;43.260;27.812;2023-07-08T10:22:47;99944.50;;;24.70;51.85
10115;BME280;5097;43.260;27.812;2023-07-08T10:25:42;99956.41;;;24.44;53.20
10115;BME280;5097;43.260;27.812;2023-07-08T10:28:36;99959.88;;;24.30;54.61
10115;BME280;5097;43.260;27.812;2023-07-08T10:31:29;99981.59;;;24.76;53.65
10115;BME280;5097;43.260;27.812;2023-07-08T10:34:36;99997.53;;;24.63;53.89
10115;BME280;5097;43.260;27.812;2023-07-08T10:37:27;99962.16;;;24.41;54.15
10115;BME280;5097;43.260;27.812;2023-07-08T10:40:25;99990.97;;;24.09;55.32
10115;BME280;5097;43.260;27.812;2023-07-08T10:46:31;99996.03;;;23.88;55.30
10115;BME280;5097;43.260;27.812;2023-07-08T10:52:48;99958.72;;;24.16;54.10
10115;BME280;5097;43.260;27.812;2023-07-08T10:55:44;99956.66;;;24.58;54.27
10115;BME280;5097;43.260;27.812;2023-07-08T10:58:45;99953.50;;;24.86;53.33
10115;BME280;5097;43.260;27.812;2023-07-08T11:01:39;99985.66;;;24.72;53.63
10115;BME280;5097;43.260;27.812;2023-07-08T11:04:40;99958.66;;;24.72;53.31
10115;BME280;5097;43.260;27.812;2023-07-08T11:07:38;99985.53;;;24.26;54.96
10115;BME280;5097;43.260;27.812;2023-07-08T11:10:28;99989.75;;;25.00;53.24
10115;BME280;5097;43.260;27.812;2023-07-08T11:13:18;99990.22;;;24.32;54.29
10115;BME280;5097;43.260;27.812;2023-07-08T11:16:07;99984.19;;;24.14;54.76
10115;BME280;5097;43.260;27.812;2023-07-08T11:19:00;99962.75;;;24.20;54.22
10115;BME280;5097;43.260;27.812;2023-07-08T11:21:49;99947.34;;;24.37;54.26
10115;BME280;5097;43.260;27.812;2023-07-08T11:24:39;99944.84;;;23.71;54.66
10115;BME280;5097;43.260;27.812;2023-07-08T11:27:30;99970.34;;;24.56;53.80
10115;BME280;5097;43.260;27.812;2023-07-08T11:30:20;99972.06;;;24.09;54.31
10115;BME280;5097;43.260;27.812;2023-07-08T11:33:10;99979.59;;;24.31;53.86
10115;BME280;5097;43.260;27.812;2023-07-08T11:36:00;99964.41;;;24.30;53.93
10115;BME280;5097;43.260;27.812;2023-07-08T11:38:50;99988.31;;;24.81;52.67
10115;BME280;5097;43.260;27.812;2023-07-08T11:41:35;99932.91;;;24.53;52.47
10115;BME280;5097;43.260;27.812;2023-07-08T11:44:20;99951.41;;;25.19;51.74
10115;BME280;5097;43.260;27.812;2023-07-08T11:47:13;99980.81;;;25.14;51.73
10115;BME280;5097;43.260;27.812;2023-07-08T11:50:00;99966.94;;;24.94;51.99
10115;BME280;5097;43.260;27.812;2023-07-08T11:52:58;99960.03;;;24.68;52.45
10115;BME280;5097;43.260;27.812;2023-07-08T11:55:47;99972.16;;;24.72;51.72
10115;BME280;5097;43.260;27.812;2023-07-08T11:58:58;99975.53;;;24.74;52.46
10115;BME280;5097;43.260;27.812;2023-07-08T12:01:52;99955.53;;;25.30;51.11
10115;BME280;5097;43.260;27.812;2023-07-08T12:04:54;99964.63;;;24.91;51.36
10115;BME280;5097;43.260;27.812;2023-07-08T12:07:41;99959.63;;;24.80;51.90
10115;BME280;5097;43.260;27.812;2023-07-08T12:10:37;99921.13;;;25.24;50.46
10115;BME280;5097;43.260;27.812;2023-07-08T12:13:25;99965.44;;;24.68;52.00
10115;BME280;5097;43.260;27.812;2023-07-08T12:16:12;99960.34;;;24.73;51.68
10115;BME280;5097;43.260;27.812;2023-07-08T12:18:57;99974.41;;;24.69;51.82
10115;BME280;5097;43.260;27.812;2023-07-08T12:21:44;99927.38;;;24.07;51.94
10115;BME280;5097;43.260;27.812;2023-07-08T12:24:29;99939.81;;;24.16;51.40
10115;BME280;5097;43.260;27.812;2023-07-08T12:27:16;99919.19;;;24.32;51.77
10115;BME280;5097;43.260;27.812;2023-07-08T12:30:01;99954.81;;;24.90;49.92
10115;BME280;5097;43.260;27.812;2023-07-08T12:32:47;99958.31;;;24.75;50.10
10115;BME280;5097;43.260;27.812;2023-07-08T12:35:33;99982.03;;;25.12;49.02
10115;BME280;5097;43.260;27.812;2023-07-08T12:38:23;99970.84;;;24.60;49.29
10115;BME280;5097;43.260;27.812;2023-07-08T12:41:13;99972.66;;;24.99;48.50
10115;BME280;5097;43.260;27.812;2023-07-08T12:44:02;99976.81;;;24.87;48.00
10115;BME280;5097;43.260;27.812;2023-07-08T12:46:48;99963.13;;;24.57;48.57
10115;BME280;5097;43.260;27.812;2023-07-08T12:49:35;99974.59;;;25.60;46.80
10115;BME280;5097;43.260;27.812;2023-07-08T12:52:21;99978.91;;;25.84;46.22
10115;BME280;5097;43.260;27.812;2023-07-08T12:55:09;99926.06;;;25.58;47.54
10115;BME280;5097;43.260;27.812;2023-07-08T12:57:55;99980.78;;;25.46;47.47
10115;BME280;5097;43.260;27.812;2023-07-08T13:00:42;99955.75;;;25.05;48.47
10115;BME280;5097;43.260;27.812;2023-07-08T13:03:29;99943.75;;;24.76;48.26
10115;BME280;5097;43.260;27.812;2023-07-08T13:06:17;99951.31;;;25.27;47.98
10115;BME280;5097;43.260;27.812;2023-07-08T13:09:22;99982.06;;;25.73;47.08
10115;BME280;5097;43.260;27.812;2023-07-08T13:12:13;99969.28;;;25.82;46.40
10115;BME280;5097;43.260;27.812;2023-07-08T13:15:00;99980.72;;;26.22;45.68
10115;BME280;5097;43.260;27.812;2023-07-08T13:17:48;99957.44;;;25.83;45.89
10115;BME280;5097;43.260;27.812;2023-07-08T13:20:33;99987.94;;;25.38;46.93
10115;BME280;5097;43.260;27.812;2023-07-08T13:23:19;99942.34;;;24.89;47.78
10115;BME280;5097;43.260;27.812;2023-07-08T13:26:12;99988.53;;;25.02;47.69
10115;BME280;5097;43.260;27.812;2023-07-08T13:29:04;99987.00;;;24.76;48.09
10115;BME280;5097;43.260;27.812;2023-07-08T13:31:55;99984.53;;;24.58;47.84
10115;BME280;5097;43.260;27.812;2023-07-08T13:34:42;100011.69;;;24.97;48.09
10115;BME280;5097;43.260;27.812;2023-07-08T13:37:30;99996.34;;;24.66;48.28
10115;BME280;5097;43.260;27.812;2023-07-08T13:40:16;99983.34;;;24.92;46.93
10115;BME280;5097;43.260;27.812;2023-07-08T13:43:01;99993.53;;;25.37;46.48
10115;BME280;5097;43.260;27.812;2023-07-08T13:45:47;100000.03;;;25.51;46.28
10115;BME280;5097;43.260;27.812;2023-07-08T13:48:36;99979.44;;;24.95;46.13
10115;BME280;5097;43.260;27.812;2023-07-08T13:51:23;100017.25;;;25.50;45.69
10115;BME280;5097;43.260;27.812;2023-07-08T13:54:18;99980.16;;;25.58;45.60
10115;BME280;5097;43.260;27.812;2023-07-08T13:57:08;99976.03;;;26.16;44.56
10115;BME280;5097;43.260;27.812;2023-07-08T13:59:55;99979.34;;;25.73;44.38
10115;BME280;5097;43.260;27.812;2023-07-08T14:02:43;99984.63;;;25.28;45.44
10115;BME280;5097;43.260;27.812;2023-07-08T14:05:29;100025.81;;;25.30;45.47
10115;BME280;5097;43.260;27.812;2023-07-08T14:08:16;100001.69;;;25.29;45.16
10115;BME280;5097;43.260;27.812;2023-07-08T14:11:02;100038.09;;;25.18;45.46
10115;BME280;5097;43.260;27.812;2023-07-08T14:13:47;100017.63;;;24.13;47.27
10115;BME280;5097;43.260;27.812;2023-07-08T14:16:34;100037.38;;;23.47;48.90
10115;BME280;5097;43.260;27.812;2023-07-08T14:19:23;100033.84;;;23.71;48.70
10115;BME280;5097;43.260;27.812;2023-07-08T14:22:20;100027.41;;;23.81;48.62
10115;BME280;5097;43.260;27.812;2023-07-08T14:25:14;100034.81;;;23.87;47.94
10115;BME280;5097;43.260;27.812;2023-07-08T14:28:00;100041.56;;;24.07;47.99
10115;BME280;5097;43.260;27.812;2023-07-08T14:30:47;100021.34;;;24.51;46.40
10115;BME280;5097;43.260;27.812;2023-07-08T14:33:32;100006.75;;;24.29;46.74
10115;BME280;5097;43.260;27.812;2023-07-08T14:36:16;100025.56;;;24.93;46.30
10115;BME280;5097;43.260;27.812;2023-07-08T14:39:00;100015.38;;;25.04;45.96
10115;BME280;5097;43.260;27.812;2023-07-08T14:41:48;99996.53;;;25.19;45.51
10115;BME280;5097;43.260;27.812;2023-07-08T14:44:34;100038.91;;;24.95;45.63
10115;BME280;5097;43.260;27.812;2023-07-08T14:47:19;100044.47;;;24.62;46.13
10115;BME280;5097;43.260;27.812;2023-07-08T14:50:12;99999.28;;;23.91;47.05
10115;BME280;5097;43.260;27.812;2023-07-08T14:52:57;100028.94;;;24.56;46.57